Time;durP1;ratioP1;P1;durP2;ratioP2;P2;SDS_P1;SDS_P2;PMS_P1;PMS_P2;Temp;Humidity;BMP_temperature;BMP_pressure;BME280_temperature;BME280_humidity;BME280_pressure;Samples;Min_cycle;Max_cycle;Signal;HPM_P1;HPM_P2
2023/11/24 00:02:07;;;;;;;;;;;;;;;23.41;24.87;96376.75;5095380;28;20073;-87
2023/11/24 00:04:34;;;;;;;;;;;;;;;23.90;24.38;96374.44;5090960;28;19928;-89
2023/11/24 00:07:03;;;;;;;;;;;;;;;23.38;25.27;96342.06;5094703;28;19927;-87
2023/11/24 00:09:29;;;;;;;;;;;;;;;23.86;24.38;96345.00;5091921;28;19920;-87
2023/11/24 00:11:55;;;;;;;;;;;;;;;23.06;26.33;96336.34;5094234;28;19920;-86
2023/11/24 00:14:21;;;;;;;;;;;;;;;22.78;25.72;96337.66;5090372;28;19927;-89
2023/11/24 00:16:47;;;;;;;;;;;;;;;23.59;24.83;96331.91;5094510;28;19965;-89
2023/11/24 00:19:16;;;;;;;;;;;;;;;23.41;25.06;96331.19;5093615;28;20307;-87
2023/11/24 00:21:43;;;;;;;;;;;;;;;22.90;25.32;96301.09;5093283;28;19920;-87
2023/11/24 00:24:09;;;;;;;;;;;;;;;22.19;26.73;96319.41;5090848;28;19924;-88
2023/11/24 00:26:35;;;;;;;;;;;;;;;23.15;25.31;96306.31;5094352;28;19926;-89
2023/11/24 00:29:01;;;;;;;;;;;;;;;23.21;25.30;96300.88;5094289;28;19920;-88
2023/11/24 00:31:28;;;;;;;;;;;;;;;22.84;25.76;96305.78;5092145;28;19969;-89
2023/11/24 00:33:54;;;;;;;;;;;;;;;22.02;26.60;96291.75;5088880;28;19953;-88
2023/11/24 00:36:20;;;;;;;;;;;;;;;21.49;27.47;96287.53;5092846;28;19924;-87
2023/11/24 00:38:49;;;;;;;;;;;;;;;21.56;27.52;96292.06;5090073;28;19920;-88
2023/11/24 00:41:16;;;;;;;;;;;;;;;21.89;28.26;96291.09;5093984;28;19932;-88
2023/11/24 00:43:42;;;;;;;;;;;;;;;21.89;27.47;96267.97;5093865;28;19935;-87
2023/11/24 00:46:09;;;;;;;;;;;;;;;21.97;27.15;96278.38;5093296;28;19923;-88
2023/11/24 00:48:36;;;;;;;;;;;;;;;22.06;26.67;96272.03;5093831;28;20383;-88
2023/11/24 00:51:02;;;;;;;;;;;;;;;22.49;25.95;96277.34;5092955;28;19920;-88
2023/11/24 00:53:28;;;;;;;;;;;;;;;21.88;26.90;96283.19;5091499;28;20295;-89
2023/11/24 00:55:54;;;;;;;;;;;;;;;21.96;26.89;96276.06;5089938;28;19920;-88
2023/11/24 00:58:20;;;;;;;;;;;;;;;22.94;25.49;96276.50;5093750;28;19927;-88
2023/11/24 01:00:46;;;;;;;;;;;;;;;22.69;26.09;96269.25;5092322;28;20022;-89
2023/11/24 01:03:12;;;;;;;;;;;;;;;23.10;25.31;96278.22;5091467;28;19924;-89
2023/11/24 01:05:38;;;;;;;;;;;;;;;23.85;24.40;96256.59;5093436;28;19965;-89
2023/11/24 01:08:04;;;;;;;;;;;;;;;23.43;28.22;96258.69;5076203;28;19926;-88
2023/11/24 01:10:30;;;;;;;;;;;;;;;23.40;25.04;96256.81;5091611;28;19924;-90
2023/11/24 01:12:58;;;;;;;;;;;;;;;23.08;25.27;96252.72;5091564;28;19935;-88
2023/11/24 01:15:24;;;;;;;;;;;;;;;23.34;25.05;96260.25;5087575;28;19925;-88
2023/11/24 01:17:50;;;;;;;;;;;;;;;23.16;25.16;96260.28;5091966;28;19951;-89
2023/11/24 01:20:16;;;;;;;;;;;;;;;22.94;25.40;96256.16;5090370;28;20022;-90
2023/11/24 01:22:44;;;;;;;;;;;;;;;21.84;26.92;96255.38;5090679;28;20287;-89
2023/11/24 01:25:10;;;;;;;;;;;;;;;23.12;25.54;96250.50;5089728;28;19920;-89
2023/11/24 01:27:36;;;;;;;;;;;;;;;22.09;26.88;96242.38;5092918;28;19924;-88
2023/11/24 01:30:02;;;;;;;;;;;;;;;22.50;26.63;96250.91;5073412;28;20015;-87
2023/11/24 01:32:28;;;;;;;;;;;;;;;22.06;26.69;96246.88;5091809;28;19920;-87
2023/11/24 01:34:54;;;;;;;;;;;;;;;22.79;25.69;96236.44;5087649;28;19977;-89
2023/11/24 01:37:21;;;;;;;;;;;;;;;21.89;28.59;96248.41;5088970;28;20331;-88
2023/11/24 01:39:49;;;;;;;;;;;;;;;22.52;26.44;96264.44;5091211;28;20380;-88
2023/11/24 01:42:15;;;;;;;;;;;;;;;22.55;26.28;96250.28;5089339;28;19924;-90
2023/11/24 01:44:42;;;;;;;;;;;;;;;22.16;26.73;96250.44;5074446;28;20362;-85
2023/11/24 01:47:08;;;;;;;;;;;;;;;22.64;26.31;96255.91;5088689;28;19958;-87
2023/11/24 01:49:35;;;;;;;;;;;;;;;22.66;26.28;96263.84;5091705;28;20064;-86
2023/11/24 01:52:02;;;;;;;;;;;;;;;22.52;26.27;96270.78;5090051;28;19926;-87
2023/11/24 01:54:33;;;;;;;;;;;;;;;22.14;26.96;96280.88;5092613;28;20025;-86
2023/11/24 01:57:01;;;;;;;;;;;;;;;22.38;27.20;96271.41;5088535;28;20363;-86
2023/11/24 01:59:27;;;;;;;;;;;;;;;23.05;26.47;96285.22;5092803;28;19998;-85
2023/11/24 02:01:54;;;;;;;;;;;;;;;22.72;27.19;96295.53;5089870;28;19949;-84
2023/11/24 02:04:21;;;;;;;;;;;;;;;22.43;27.39;96298.75;5091056;28;19951;-84
2023/11/24 02:06:48;;;;;;;;;;;;;;;22.69;27.54;96314.03;5092746;28;20017;-85
2023/11/24 02:09:14;;;;;;;;;;;;;;;22.48;27.71;96311.34;5090518;28;19924;-85
2023/11/24 02:11:40;;;;;;;;;;;;;;;23.56;26.96;96315.25;5090311;28;20838;-86
2023/11/24 02:14:06;;;;;;;;;;;;;;;24.14;26.41;96312.81;5092640;28;19920;-86
2023/11/24 02:16:33;;;;;;;;;;;;;;;21.38;33.46;96407.22;5092510;28;19920;-86
2023/11/24 02:18:59;;;;;;;;;;;;;;;18.48;35.53;96400.94;5090588;28;19919;-84
2023/11/24 02:21:25;;;;;;;;;;;;;;;16.79;41.11;96413.06;5091258;28;19973;-86
2023/11/24 02:23:51;;;;;;;;;;;;;;;16.55;41.81;96426.97;5090421;28;20016;-85
2023/11/24 02:26:17;;;;;;;;;;;;;;;17.13;40.71;96396.94;5090530;28;19927;-85
2023/11/24 02:28:44;;;;;;;;;;;;;;;16.88;39.84;96403.00;5092215;28;19920;-85
2023/11/24 02:31:11;;;;;;;;;;;;;;;17.28;37.86;96407.31;5088284;28;19920;-85
2023/11/24 02:33:40;;;;;;;;;;;;;;;16.56;39.58;96400.06;5088731;28;19950;-85
2023/11/24 02:36:08;;;;;;;;;;;;;;;16.77;38.66;96404.41;5090318;28;20046;-87
2023/11/24 02:38:35;;;;;;;;;;;;;;;16.67;40.19;96400.63;5088800;28;19928;-89
2023/11/24 02:41:01;;;;;;;;;;;;;;;17.91;36.62;96394.00;5092050;28;19920;-88
2023/11/24 02:43:27;;;;;;;;;;;;;;;17.55;36.92;96395.28;5090668;28;20054;-88
2023/11/24 02:45:54;;;;;;;;;;;;;;;18.56;35.04;96399.50;5089115;28;19932;-85
2023/11/24 02:48:20;;;;;;;;;;;;;;;17.79;37.54;96374.47;5090387;28;20468;-85
2023/11/24 02:50:47;;;;;;;;;;;;;;;18.26;36.12;96378.44;5090854;28;20070;-85
2023/11/24 02:53:14;;;;;;;;;;;;;;;17.83;37.14;96389.81;5090466;28;19935;-85
2023/11/24 02:55:40;;;;;;;;;;;;;;;17.67;37.09;96384.25;5089737;28;19928;-86
2023/11/24 02:58:06;;;;;;;;;;;;;;;17.10;38.55;96375.63;5094102;28;19955;-88
2023/11/24 03:00:32;;;;;;;;;;;;;;;16.90;38.95;96383.94;5090816;28;19932;-87
2023/11/24 03:03:03;;;;;;;;;;;;;;;17.00;39.22;96382.16;5076610;28;19920;-89
2023/11/24 03:05:29;;;;;;;;;;;;;;;17.32;37.14;96368.38;5096124;28;20008;-86
2023/11/24 03:07:56;;;;;;;;;;;;;;;16.81;38.23;96388.47;5096090;28;19920;-87
2023/11/24 03:10:22;;;;;;;;;;;;;;;17.19;36.62;96359.19;5092557;28;19920;-87
2023/11/24 03:12:48;;;;;;;;;;;;;;;16.52;39.11;96396.59;5094354;28;19921;-87
2023/11/24 03:15:14;;;;;;;;;;;;;;;17.28;37.45;96384.34;5095197;28;19947;-86
2023/11/24 03:17:41;;;;;;;;;;;;;;;16.28;40.60;96411.63;5089004;28;19927;-87
2023/11/24 03:20:07;;;;;;;;;;;;;;;17.47;36.60;96408.47;5093480;28;19920;-87
2023/11/24 03:22:33;;;;;;;;;;;;;;;18.02;35.20;96393.72;5094988;28;19932;-88
2023/11/24 03:25:00;;;;;;;;;;;;;;;17.54;36.27;96393.69;5095319;28;19934;-87
2023/11/24 03:27:27;;;;;;;;;;;;;;;18.53;34.68;96381.72;5094761;28;19924;-87
2023/11/24 03:29:53;;;;;;;;;;;;;;;17.72;35.24;96367.09;5093387;28;19916;-88
2023/11/24 03:32:20;;;;;;;;;;;;;;;17.76;34.93;96367.03;5095487;28;19979;-88
2023/11/24 03:34:46;;;;;;;;;;;;;;;18.31;34.03;96349.34;5093986;28;19931;-89
2023/11/24 03:37:12;;;;;;;;;;;;;;;19.68;31.32;96342.59;5091672;28;20012;-88
2023/11/24 03:39:38;;;;;;;;;;;;;;;19.64;31.09;96333.59;5094535;28;19920;-88
2023/11/24 03:42:04;;;;;;;;;;;;;;;20.57;30.20;96340.41;5095457;28;20395;-89
2023/11/24 03:44:30;;;;;;;;;;;;;;;21.07;29.18;96342.22;5093066;28;20038;-88
2023/11/24 03:46:56;;;;;;;;;;;;;;;21.11;29.06;96352.00;5093676;28;19920;-88
2023/11/24 03:49:22;;;;;;;;;;;;;;;20.14;30.20;96343.84;5094325;28;19920;-88
2023/11/24 03:51:48;;;;;;;;;;;;;;;20.61;29.56;96336.28;5093665;28;19920;-88
2023/11/24 03:54:14;;;;;;;;;;;;;;;21.44;28.00;96332.81;5091542;28;19954;-88
2023/11/24 03:56:41;;;;;;;;;;;;;;;21.45;28.17;96325.97;5095418;28;19973;-87
2023/11/24 03:59:07;;;;;;;;;;;;;;;21.52;28.17;96316.56;5093516;28;19928;-87
2023/11/24 04:01:33;;;;;;;;;;;;;;;22.34;27.02;96312.75;5094871;28;19916;-87
2023/11/24 04:04:00;;;;;;;;;;;;;;;21.91;27.56;96310.19;5094771;28;19920;-88
2023/11/24 04:06:26;;;;;;;;;;;;;;;22.24;27.10;96300.00;5093945;28;19916;-88
2023/11/24 04:08:52;;;;;;;;;;;;;;;22.35;26.74;96308.72;5093090;28;20376;-89
2023/11/24 04:11:18;;;;;;;;;;;;;;;21.67;28.94;96298.75;5091067;28;19916;-88
2023/11/24 04:13:44;;;;;;;;;;;;;;;21.34;28.33;96300.50;5093201;28;19928;-87
2023/11/24 04:16:10;;;;;;;;;;;;;;;21.54;27.58;96297.31;5094076;28;19981;-87
2023/11/24 04:18:36;;;;;;;;;;;;;;;21.12;28.26;96288.63;5091926;28;19941;-87
2023/11/24 04:21:03;;;;;;;;;;;;;;;21.29;28.29;96276.75;5093782;28;20027;-87
2023/11/24 04:23:29;;;;;;;;;;;;;;;21.38;27.69;96278.78;5093090;28;19925;-87
2023/11/24 04:25:55;;;;;;;;;;;;;;;21.63;27.52;96278.59;5090086;28;20383;-87
2023/11/24 04:28:21;;;;;;;;;;;;;;;21.06;28.30;96280.03;5094533;28;20295;-86
2023/11/24 04:30:47;;;;;;;;;;;;;;;21.20;27.93;96273.13;5090023;28;20019;-87
2023/11/24 04:33:13;;;;;;;;;;;;;;;21.67;27.47;96278.44;5075355;28;20564;-87
2023/11/24 04:35:39;;;;;;;;;;;;;;;21.82;26.98;96262.66;5092745;28;19943;-88
2023/11/24 04:38:06;;;;;;;;;;;;;;;21.70;27.19;96253.16;5092922;28;20287;-87
2023/11/24 04:40:32;;;;;;;;;;;;;;;20.48;30.71;96251.13;5092741;28;19928;-87
2023/11/24 04:42:58;;;;;;;;;;;;;;;21.28;28.05;96263.25;5093084;28;19923;-88
2023/11/24 04:45:24;;;;;;;;;;;;;;;20.94;28.25;96263.34;5092941;28;19924;-88
2023/11/24 04:47:51;;;;;;;;;;;;;;;20.78;28.50;96264.34;5093543;28;20467;-87
2023/11/24 04:50:17;;;;;;;;;;;;;;;20.70;28.65;96277.00;5092503;28;19928;-87
2023/11/24 04:52:43;;;;;;;;;;;;;;;20.26;28.79;96239.19;5092455;28;20383;-89
2023/11/24 04:55:09;;;;;;;;;;;;;;;20.37;28.94;96254.31;5091530;28;20293;-88
2023/11/24 04:57:35;;;;;;;;;;;;;;;21.20;27.91;96256.38;5091337;28;20375;-87
2023/11/24 05:00:01;;;;;;;;;;;;;;;20.41;28.83;96240.25;5090538;28;20022;-88
2023/11/24 05:02:27;;;;;;;;;;;;;;;20.73;28.12;96244.63;5092832;28;19920;-87
2023/11/24 05:04:56;;;;;;;;;;;;;;;20.24;29.03;96241.66;5091741;28;19920;-87
2023/11/24 05:07:23;;;;;;;;;;;;;;;20.10;28.93;96244.91;5088579;28;19920;-89
2023/11/24 05:09:50;;;;;;;;;;;;;;;19.07;32.10;96239.16;5093319;28;19973;-87
2023/11/24 05:12:16;;;;;;;;;;;;;;;19.07;30.89;96245.50;5089386;28;20341;-88
2023/11/24 05:14:42;;;;;;;;;;;;;;;19.07;30.68;96245.50;5092075;28;19942;-88
2023/11/24 05:17:08;;;;;;;;;;;;;;;19.19;30.96;96244.75;5093191;28;20011;-89
2023/11/24 05:19:34;;;;;;;;;;;;;;;20.57;28.32;96228.91;5093820;28;19931;-89
2023/11/24 05:22:00;;;;;;;;;;;;;;;20.56;28.31;96205.06;5091786;28;19956;-91
2023/11/24 05:24:26;;;;;;;;;;;;;;;21.05;27.68;96205.94;5091978;28;19924;-90
2023/11/24 05:26:53;;;;;;;;;;;;;;;21.58;27.37;96208.59;5091696;28;19935;-89
2023/11/24 05:29:19;;;;;;;;;;;;;;;20.84;28.20;96222.72;5092979;28;19952;-89
2023/11/24 05:31:45;;;;;;;;;;;;;;;20.20;28.84;96233.41;5091969;28;19931;-89
2023/11/24 05:34:11;;;;;;;;;;;;;;;19.04;32.05;96240.81;5087950;28;19935;-87
2023/11/24 05:36:37;;;;;;;;;;;;;;;19.63;29.69;96244.94;5093114;28;19920;-88
2023/11/24 05:39:05;;;;;;;;;;;;;;;18.75;31.43;96247.69;5093595;28;20047;-88
2023/11/24 05:41:31;;;;;;;;;;;;;;;18.67;34.03;96243.59;5081539;28;20114;-88
2023/11/24 05:43:58;;;;;;;;;;;;;;;19.46;29.84;96261.00;5073917;28;19927;-88
2023/11/24 05:46:24;;;;;;;;;;;;;;;18.00;34.67;96262.88;5085366;28;20405;-89
2023/11/24 05:48:50;;;;;;;;;;;;;;;17.80;34.63;96278.88;5087503;28;19920;-89
2023/11/24 05:51:16;;;;;;;;;;;;;;;19.44;30.91;96268.25;5085392;28;19972;-90
2023/11/24 05:53:42;;;;;;;;;;;;;;;19.23;29.21;96262.09;5086879;28;19931;-89
2023/11/24 05:56:09;;;;;;;;;;;;;;;18.02;31.87;96266.00;5092936;28;19923;-89
2023/11/24 05:58:35;;;;;;;;;;;;;;;17.92;30.83;96290.03;5091979;28;20008;-90
2023/11/24 06:01:01;;;;;;;;;;;;;;;17.96;30.53;96292.75;5089919;28;20384;-90
2023/11/24 06:03:27;;;;;;;;;;;;;;;17.62;33.66;96311.84;5074969;28;19917;-89
2023/11/24 06:05:53;;;;;;;;;;;;;;;17.65;30.95;96306.22;5070516;28;20289;-89
2023/11/24 06:08:19;;;;;;;;;;;;;;;16.64;32.23;96301.72;5090041;28;19920;-90
2023/11/24 06:10:47;;;;;;;;;;;;;;;16.67;31.27;96316.72;5084232;28;20019;-90
2023/11/24 06:13:13;;;;;;;;;;;;;;;16.87;29.87;96287.81;5087977;28;19935;-89
2023/11/24 06:15:39;;;;;;;;;;;;;;;17.73;28.31;96302.06;5084678;28;19920;-90
2023/11/24 06:18:05;;;;;;;;;;;;;;;19.22;26.25;96302.28;5092466;28;19966;-89
2023/11/24 06:20:32;;;;;;;;;;;;;;;20.34;25.08;96315.75;5081309;28;19915;-90
2023/11/24 06:22:58;;;;;;;;;;;;;;;19.14;26.85;96327.97;5084232;28;20485;-89
2023/11/24 06:25:24;;;;;;;;;;;;;;;19.59;25.72;96325.78;5090564;28;20075;-91
2023/11/24 06:27:50;;;;;;;;;;;;;;;20.02;26.23;96334.31;5089853;28;19926;-90
2023/11/24 06:30:16;;;;;;;;;;;;;;;20.22;25.23;96333.28;5097380;28;19974;-92
2023/11/24 06:32:42;;;;;;;;;;;;;;;19.90;25.73;96329.56;5080901;28;19921;-90
2023/11/24 06:35:15;;;;;;;;;;;;;;;18.80;27.86;96348.03;5084694;28;20081;-93
2023/11/24 06:37:41;;;;;;;;;;;;;;;18.68;29.18;96351.53;5085218;28;19921;-90
2023/11/24 06:40:11;;;;;;;;;;;;;;;17.21;31.52;96318.72;5089203;28;19928;-94
2023/11/24 06:42:39;;;;;;;;;;;;;;;17.32;31.75;96329.56;5067071;28;19924;-91
2023/11/24 06:45:08;;;;;;;;;;;;;;;16.52;33.65;96327.34;5083966;28;19935;-91
2023/11/24 06:47:34;;;;;;;;;;;;;;;16.67;32.88;96348.00;5068717;28;19932;-91
2023/11/24 06:50:00;;;;;;;;;;;;;;;16.88;32.59;96350.31;5093923;28;19927;-91
2023/11/24 06:52:27;;;;;;;;;;;;;;;17.69;30.91;96361.66;5083837;28;19931;-90
2023/11/24 06:54:53;;;;;;;;;;;;;;;18.47;29.93;96358.47;5066281;28;19920;-90
2023/11/24 06:57:19;;;;;;;;;;;;;;;18.66;29.54;96376.22;5090190;28;20003;-90
2023/11/24 06:59:45;;;;;;;;;;;;;;;18.97;28.89;96369.00;5094998;28;20388;-89
2023/11/24 07:02:11;;;;;;;;;;;;;;;19.01;30.67;96383.56;5086899;28;19927;-90
2023/11/24 07:04:37;;;;;;;;;;;;;;;19.72;29.21;96379.47;5071544;28;19928;-90
2023/11/24 07:07:03;;;;;;;;;;;;;;;20.22;27.56;96387.03;5084083;28;19959;-91
2023/11/24 07:09:29;;;;;;;;;;;;;;;21.11;26.37;96379.13;5085578;28;19925;-89
2023/11/24 07:11:55;;;;;;;;;;;;;;;20.25;28.01;96377.78;5089857;28;20142;-89
2023/11/24 07:14:21;;;;;;;;;;;;;;;20.69;27.03;96384.22;5087046;28;19928;-88
2023/11/24 07:16:47;;;;;;;;;;;;;;;20.83;26.78;96383.72;5082728;28;19920;-90
2023/11/24 07:19:13;;;;;;;;;;;;;;;21.11;26.54;96382.72;5086297;28;19930;-90
2023/11/24 07:21:40;;;;;;;;;;;;;;;20.49;29.13;96378.16;5092748;28;19966;-89
2023/11/24 07:24:06;;;;;;;;;;;;;;;20.09;29.78;96383.47;5096357;28;19970;-89
2023/11/24 07:26:32;;;;;;;;;;;;;;;20.20;28.21;96386.66;5076513;28;19927;-88
2023/11/24 07:28:58;;;;;;;;;;;;;;;20.38;27.95;96386.09;5091416;28;19985;-89
2023/11/24 07:31:25;;;;;;;;;;;;;;;21.09;27.03;96381.59;5090399;28;19925;-89
2023/11/24 07:33:52;;;;;;;;;;;;;;;20.95;27.42;96377.28;5089249;28;19928;-88
2023/11/24 07:36:21;;;;;;;;;;;;;;;20.25;28.05;96372.19;5088993;28;19973;-89
2023/11/24 07:38:47;;;;;;;;;;;;;;;18.92;30.39;96383.44;5089454;28;19920;-90
2023/11/24 07:41:14;;;;;;;;;;;;;;;20.71;27.69;96370.59;5102093;28;19927;-89
2023/11/24 07:43:40;;;;;;;;;;;;;;;19.50;28.76;96370.22;5094373;28;19924;-90
2023/11/24 07:46:10;;;;;;;;;;;;;;;18.70;30.15;96367.78;5091849;28;21885;-88
2023/11/24 07:48:37;;;;;;;;;;;;;;;19.94;28.11;96351.72;5084305;28;19971;-89
2023/11/24 07:51:05;;;;;;;;;;;;;;;18.47;31.73;96366.03;5087220;28;19916;-90
2023/11/24 07:53:32;;;;;;;;;;;;;;;18.57;29.90;96349.06;5087805;28;19925;-91
2023/11/24 07:55:59;;;;;;;;;;;;;;;17.62;33.25;96359.03;5087332;28;20351;-90
2023/11/24 07:58:25;;;;;;;;;;;;;;;18.20;30.84;96369.09;5093131;28;19920;-89
2023/11/24 08:00:51;;;;;;;;;;;;;;;18.43;30.79;96368.09;5091667;28;19923;-89
2023/11/24 08:03:18;;;;;;;;;;;;;;;17.19;33.39;96371.06;5092201;28;20043;-90
2023/11/24 08:05:44;;;;;;;;;;;;;;;19.58;28.39;96348.53;5091142;28;19935;-93
2023/11/24 08:08:10;;;;;;;;;;;;;;;18.85;29.58;96349.50;5089352;28;19921;-91
2023/11/24 08:10:36;;;;;;;;;;;;;;;17.50;31.90;96351.34;5077166;28;19950;-86
2023/11/24 08:13:02;;;;;;;;;;;;;;;17.86;31.54;96363.19;5085202;28;20376;-89
2023/11/24 08:15:29;;;;;;;;;;;;;;;19.17;29.27;96360.47;5091600;28;19973;-89
2023/11/24 08:17:55;;;;;;;;;;;;;;;18.73;29.89;96351.00;5085040;28;19928;-86
2023/11/24 08:20:22;;;;;;;;;;;;;;;18.81;29.76;96351.59;5086111;28;20054;-88
2023/11/24 08:22:49;;;;;;;;;;;;;;;19.37;30.90;96332.47;5085184;28;19936;-88
2023/11/24 08:25:15;;;;;;;;;;;;;;;18.08;30.90;96355.13;5080606;28;19928;-88
2023/11/24 08:27:42;;;;;;;;;;;;;;;18.37;32.06;96350.38;5089737;28;19916;-88
2023/11/24 08:30:11;;;;;;;;;;;;;;;19.05;29.66;96356.44;5087135;28;19977;-87
2023/11/24 08:32:38;;;;;;;;;;;;;;;19.32;28.61;96345.66;5085586;28;20007;-87
2023/11/24 08:35:04;;;;;;;;;;;;;;;19.15;29.99;96344.22;5094442;28;19927;-87
2023/11/24 08:37:30;;;;;;;;;;;;;;;19.56;28.46;96348.94;5087080;28;19943;-88
2023/11/24 08:39:58;;;;;;;;;;;;;;;19.75;28.00;96341.59;5089119;28;19947;-88
2023/11/24 08:42:24;;;;;;;;;;;;;;;20.03;27.60;96351.81;5085312;28;20402;-88
2023/11/24 08:44:50;;;;;;;;;;;;;;;18.39;33.52;96353.53;5087114;28;19928;-87
2023/11/24 08:47:16;;;;;;;;;;;;;;;18.05;29.80;96347.66;5087823;28;19958;-87
2023/11/24 08:49:42;;;;;;;;;;;;;;;18.88;29.26;96343.06;5090879;28;19920;-87
2023/11/24 08:52:09;;;;;;;;;;;;;;;17.83;31.44;96344.63;5085256;28;19973;-87
2023/11/24 08:54:36;;;;;;;;;;;;;;;18.37;30.96;96339.25;5087282;28;20014;-89
2023/11/24 08:57:07;;;;;;;;;;;;;;;17.88;31.11;96335.78;5089629;28;19939;-88
2023/11/24 08:59:34;;;;;;;;;;;;;;;17.49;33.36;96335.91;5068170;28;20056;-87
2023/11/24 09:02:00;;;;;;;;;;;;;;;18.75;28.83;96339.44;5086238;28;19927;-89
2023/11/24 09:04:27;;;;;;;;;;;;;;;18.36;28.90;96318.28;5073079;28;19977;-90
2023/11/24 09:06:54;;;;;;;;;;;;;;;18.28;29.64;96314.91;5086507;28;19920;-88
2023/11/24 09:09:20;;;;;;;;;;;;;;;18.35;29.08;96313.91;5088308;28;20279;-88
2023/11/24 09:11:46;;;;;;;;;;;;;;;18.15;30.09;96299.41;5088663;28;20568;-88
2023/11/24 09:14:12;;;;;;;;;;;;;;;19.75;27.26;96291.47;5087931;28;19935;-89
2023/11/24 09:16:38;;;;;;;;;;;;;;;20.56;26.67;96283.88;5071418;28;19920;-90
2023/11/24 09:19:05;;;;;;;;;;;;;;;21.13;26.10;96284.56;5088193;28;19977;-90
2023/11/24 09:21:31;;;;;;;;;;;;;;;20.90;25.80;96269.09;5086936;28;19920;-88
2023/11/24 09:23:57;;;;;;;;;;;;;;;20.32;26.68;96271.63;5079739;28;19924;-90
2023/11/24 09:26:23;;;;;;;;;;;;;;;19.19;28.50;96247.53;5090685;28;20395;-89
2023/11/24 09:28:50;;;;;;;;;;;;;;;19.09;32.00;96270.88;5070630;28;20298;-91
2023/11/24 09:31:16;;;;;;;;;;;;;;;19.37;27.20;96266.44;5085417;28;19917;-93
2023/11/24 09:33:42;;;;;;;;;;;;;;;18.77;28.01;96267.50;5089549;28;19927;-91
2023/11/24 09:36:08;;;;;;;;;;;;;;;18.87;27.87;96264.41;5088842;28;19920;-91
2023/11/24 09:38:34;;;;;;;;;;;;;;;18.71;27.97;96261.72;5083930;28;20277;-92
2023/11/24 09:41:01;;;;;;;;;;;;;;;18.43;28.05;96268.06;5083043;28;19962;-91
2023/11/24 09:43:27;;;;;;;;;;;;;;;18.78;27.30;96258.72;5088191;28;20379;-90
2023/11/24 09:45:55;;;;;;;;;;;;;;;18.76;32.93;96238.94;5085650;28;19977;-92
2023/11/24 09:48:22;;;;;;;;;;;;;;;18.42;33.34;96269.28;5084421;28;21335;-90
2023/11/24 09:50:48;;;;;;;;;;;;;;;18.46;29.54;96256.88;5083324;28;19927;-90
2023/11/24 09:53:17;;;;;;;;;;;;;;;18.97;27.16;96241.06;5088935;28;19928;-91
2023/11/24 09:55:44;;;;;;;;;;;;;;;18.98;27.20;96225.16;5089524;28;19920;-90
2023/11/24 09:58:10;;;;;;;;;;;;;;;18.89;27.50;96200.00;5083648;28;20288;-90
2023/11/24 10:00:36;;;;;;;;;;;;;;;18.29;30.27;96224.00;5083791;28;19928;-90
2023/11/24 10:03:06;;;;;;;;;;;;;;;16.83;35.31;96237.19;5083499;28;19935;-92
2023/11/24 10:05:32;;;;;;;;;;;;;;;17.72;28.96;96230.31;5086631;28;19928;-90
2023/11/24 10:07:59;;;;;;;;;;;;;;;17.46;31.06;96203.59;5079226;28;19927;-89
2023/11/24 10:10:25;;;;;;;;;;;;;;;17.67;29.34;96200.31;5084470;28;19920;-90
2023/11/24 10:12:52;;;;;;;;;;;;;;;17.48;29.45;96206.75;5080749;28;19930;-91
2023/11/24 10:15:20;;;;;;;;;;;;;;;18.06;29.24;96211.16;5085476;28;19924;-88
2023/11/24 10:17:48;;;;;;;;;;;;;;;19.15;27.64;96207.13;5084405;28;19963;-89
2023/11/24 10:20:18;;;;;;;;;;;;;;;20.26;26.20;96200.19;5085323;28;20393;-90
2023/11/24 10:22:49;;;;;;;;;;;;;;;20.07;29.63;96198.47;5079904;28;20369;-89
2023/11/24 10:25:19;;;;;;;;;;;;;;;19.31;29.25;96179.97;5077141;28;19920;-89
2023/11/24 10:27:45;;;;;;;;;;;;;;;18.63;27.94;96182.53;5077130;28;19999;-88
2023/11/24 10:30:12;;;;;;;;;;;;;;;17.93;29.29;96177.78;5090275;28;19924;-89
2023/11/24 10:32:43;;;;;;;;;;;;;;;19.31;26.78;96152.13;5079625;28;19965;-88
2023/11/24 10:35:12;;;;;;;;;;;;;;;19.08;26.54;96148.94;5080513;28;19924;-90
2023/11/24 10:37:39;;;;;;;;;;;;;;;18.22;28.28;96141.66;5087352;28;19920;-89
2023/11/24 10:40:09;;;;;;;;;;;;;;;19.70;26.46;96142.47;5077280;28;20394;-89
2023/11/24 10:42:36;;;;;;;;;;;;;;;19.40;28.42;96143.13;5079092;28;20728;-86
2023/11/24 10:45:05;;;;;;;;;;;;;;;19.15;26.81;96145.94;5074766;28;19925;-87
2023/11/24 10:47:53;;;;;;;;;;;;;;;18.50;28.94;96143.63;5079634;28;20509;-84
2023/11/24 10:50:23;;;;;;;;;;;;;;;19.26;27.37;96133.22;5083121;28;20460;-87
2023/11/24 10:52:58;;;;;;;;;;;;;;;18.88;28.02;96126.19;5082352;28;19932;-85
2023/11/24 10:55:26;;;;;;;;;;;;;;;19.35;27.08;96129.75;5082635;28;19943;-86
2023/11/24 10:57:53;;;;;;;;;;;;;;;20.06;25.90;96118.91;5077811;28;19981;-87
2023/11/24 11:00:20;;;;;;;;;;;;;;;19.88;26.65;96120.31;5079190;28;20459;-86
2023/11/24 11:02:47;;;;;;;;;;;;;;;19.45;26.12;96111.94;5083289;28;20487;-86
2023/11/24 11:05:19;;;;;;;;;;;;;;;18.83;27.35;96107.28;5064944;28;19924;-86
2023/11/24 11:07:54;;;;;;;;;;;;;;;20.15;25.18;96116.97;5084589;28;20368;-87
2023/11/24 11:10:25;;;;;;;;;;;;;;;19.86;25.55;96125.56;5083738;28;20390;-87
2023/11/24 11:12:53;;;;;;;;;;;;;;;20.77;26.02;96091.91;5082087;28;19920;-87
2023/11/24 11:15:28;;;;;;;;;;;;;;;20.95;24.67;96100.31;5080226;28;19967;-86
2023/11/24 11:18:07;;;;;;;;;;;;;;;19.61;25.89;96099.84;5088654;28;19931;-86
2023/11/24 11:20:37;;;;;;;;;;;;;;;19.39;25.78;96088.72;5086791;28;19920;-87
2023/11/24 11:23:17;;;;;;;;;;;;;;;20.88;24.27;96081.88;5088105;28;19924;-86
2023/11/24 11:25:46;;;;;;;;;;;;;;;21.48;23.99;96095.31;5089009;28;19931;-86
2023/11/24 11:28:19;;;;;;;;;;;;;;;22.22;22.55;96073.25;5084903;28;19927;-89
2023/11/24 11:30:55;;;;;;;;;;;;;;;22.01;22.42;96057.47;5093836;28;19930;-85
2023/11/24 11:33:22;;;;;;;;;;;;;;;19.39;26.81;96072.00;5093739;28;19920;-86
2023/11/24 11:35:57;;;;;;;;;;;;;;;20.33;23.21;96061.34;5083718;28;19973;-87
2023/11/24 11:38:40;;;;;;;;;;;;;;;20.15;23.96;96064.03;5087497;28;19942;-86
2023/11/24 11:41:06;;;;;;;;;;;;;;;20.00;24.36;96068.56;5086566;28;19967;-88
2023/11/24 11:43:51;;;;;;;;;;;;;;;19.99;27.54;96069.81;5071468;28;19920;-88
2023/11/24 11:46:17;;;;;;;;;;;;;;;19.78;28.64;96078.97;5083168;28;19920;-86
2023/11/24 11:48:43;;;;;;;;;;;;;;;20.92;24.13;96076.13;5082706;28;19945;-86
2023/11/24 11:51:15;;;;;;;;;;;;;;;21.21;26.14;96074.50;5089492;28;19963;-89
2023/11/24 11:53:42;;;;;;;;;;;;;;;21.02;22.67;96066.56;5087954;28;19977;-89
2023/11/24 11:56:11;;;;;;;;;;;;;;;21.30;22.59;96073.75;5091398;28;19920;-87
2023/11/24 11:58:40;;;;;;;;;;;;;;;21.83;22.17;96077.81;5088726;28;20019;-88
2023/11/24 12:01:06;;;;;;;;;;;;;;;21.70;21.99;96077.19;5086949;28;20014;-88
2023/11/24 12:03:33;;;;;;;;;;;;;;;20.39;23.86;96075.47;5086501;28;19923;-89
2023/11/24 12:06:05;;;;;;;;;;;;;;;19.87;25.30;96073.44;5082730;28;20459;-88
2023/11/24 12:08:38;;;;;;;;;;;;;;;19.78;27.04;96071.38;5088573;28;19966;-89
2023/11/24 12:11:05;;;;;;;;;;;;;;;21.17;23.09;96070.31;5084956;28;19930;-89
2023/11/24 12:13:31;;;;;;;;;;;;;;;20.61;24.96;96067.81;5083871;28;19935;-88
2023/11/24 12:15:59;;;;;;;;;;;;;;;20.29;23.83;96054.38;5071208;28;19916;-89
2023/11/24 12:18:25;;;;;;;;;;;;;;;20.98;23.24;96061.09;5080832;28;19950;-88
2023/11/24 12:20:51;;;;;;;;;;;;;;;21.74;22.44;96054.69;5093586;28;19920;-89
2023/11/24 12:23:18;;;;;;;;;;;;;;;20.25;25.18;96048.16;5087357;28;19967;-90
2023/11/24 12:25:45;;;;;;;;;;;;;;;19.47;26.30;96050.25;5085265;28;19994;-90
2023/11/24 12:28:13;;;;;;;;;;;;;;;18.17;27.89;96039.44;5085648;28;20189;-91
2023/11/24 12:30:43;;;;;;;;;;;;;;;17.67;31.95;96062.34;5088461;28;19920;-88
2023/11/24 12:33:14;;;;;;;;;;;;;;;19.53;25.60;96056.81;5083589;28;20286;-89
2023/11/24 12:35:47;;;;;;;;;;;;;;;19.97;26.14;96061.94;5090965;28;20373;-89
2023/11/24 12:38:14;;;;;;;;;;;;;;;19.84;27.02;96041.72;5086853;28;19975;-90
2023/11/24 12:40:42;;;;;;;;;;;;;;;18.87;30.73;96060.66;5077912;28;20352;-89
2023/11/24 12:43:15;;;;;;;;;;;;;;;18.15;28.18;96060.56;5084081;28;19941;-89
2023/11/24 12:45:41;;;;;;;;;;;;;;;19.10;26.25;96055.50;5084080;28;19920;-87
2023/11/24 12:48:21;;;;;;;;;;;;;;;20.39;23.94;96053.19;5084253;28;19969;-90